createdAt,value
2023-04-28T00:05:39.583Z,9.7
2023-04-28T00:11:24.202Z,8.8
2023-04-28T00:17:09.195Z,8.3
2023-04-28T00:22:54.320Z,9
2023-04-28T00:28:38.745Z,8.6
2023-04-28T00:34:23.593Z,8.5
2023-04-28T00:40:09.039Z,7.8
2023-04-28T00:45:55.252Z,9.4
2023-04-28T00:51:40.280Z,8.9
2023-04-28T00:57:25.852Z,10.3
2023-04-28T01:03:11.400Z,8.8
2023-04-28T01:08:56.158Z,11
2023-04-28T01:14:41.040Z,10.8
2023-04-28T01:20:26.055Z,10.8
2023-04-28T01:26:10.989Z,9.7
2023-04-28T01:31:55.849Z,8.5
2023-04-28T01:37:40.667Z,9.3
2023-04-28T01:43:25.503Z,9.4
2023-04-28T01:49:16.075Z,8.7
2023-04-28T01:55:00.894Z,9
2023-04-28T02:00:45.780Z,8.7
2023-04-28T02:06:30.435Z,7.6
2023-04-28T02:12:15.632Z,9
2023-04-28T02:18:00.814Z,7.4
2023-04-28T02:23:45.381Z,8.4
2023-04-28T02:29:30.337Z,9.6
2023-04-28T02:35:15.653Z,7.4
2023-04-28T02:41:05.356Z,6.9
2023-04-28T02:46:50.514Z,8.1
2023-04-28T02:52:35.450Z,7.2
2023-04-28T02:58:20.641Z,7.4
2023-04-28T03:04:06.459Z,8.1
2023-04-28T03:09:51.856Z,7
2023-04-28T03:15:36.816Z,7.2
2023-04-28T03:21:21.678Z,8.7
2023-04-28T03:27:06.594Z,6.8
2023-04-28T03:32:59.515Z,7.8
2023-04-28T03:38:47.986Z,6.5
2023-04-28T03:44:37.361Z,7.2
2023-04-28T03:50:27.932Z,7.4
2023-04-28T03:56:27.848Z,4.5
2023-04-28T04:02:27.645Z,6.2
2023-04-28T04:08:19.014Z,5.5
2023-04-28T04:14:11.067Z,4.3
2023-04-28T04:20:03.024Z,4.7
2023-04-28T04:25:51.903Z,4.8
2023-04-28T04:31:42.519Z,5.2
2023-04-28T04:37:28.134Z,3.6
2023-04-28T04:43:14.647Z,4.8
2023-04-28T04:49:09.058Z,3.3
2023-04-28T04:55:00.895Z,3.8
2023-04-28T05:00:47.361Z,3.5
2023-04-28T05:06:39.482Z,2.5
2023-04-28T05:12:32.196Z,3.2
2023-04-28T05:18:24.427Z,2.7
2023-04-28T05:24:18.060Z,2.8
2023-04-28T05:30:10.319Z,2.7
2023-04-28T05:35:56.151Z,2.2
2023-04-28T05:41:43.203Z,3.6
2023-04-28T05:47:39.015Z,2.7
2023-04-28T05:53:24.811Z,2.4
2023-04-28T05:59:20.234Z,3.6
2023-04-28T06:05:07.514Z,2.6
2023-04-28T06:11:06.180Z,3.9
2023-04-28T06:16:51.359Z,3
2023-04-28T06:22:37.074Z,3.2
2023-04-28T06:28:31.341Z,3.6
2023-04-28T06:34:17.291Z,4
2023-04-28T06:40:13.568Z,8.2
2023-04-28T06:45:59.200Z,3.1
2023-04-28T06:51:48.647Z,3.1
2023-04-28T06:57:34.150Z,2.7
2023-04-28T07:03:22.444Z,2.9
2023-04-28T07:09:08.485Z,2.9
2023-04-28T07:14:56.020Z,2.6
2023-04-28T07:20:41.271Z,3.8
2023-04-28T07:26:39.823Z,2.5
2023-04-28T07:32:31.449Z,2.7
2023-04-28T07:38:17.415Z,3.1
2023-04-28T07:44:09.456Z,4
2023-04-28T07:49:57.113Z,6
2023-04-28T07:55:48.029Z,7
2023-04-28T08:01:33.927Z,9.3
2023-04-28T08:07:32.580Z,10.6
2023-04-28T08:13:18.489Z,9.8
2023-04-28T08:19:06.888Z,7.2
2023-04-28T08:24:56.830Z,5.1
2023-04-28T08:30:55.421Z,6.1
2023-04-28T08:36:42.570Z,6.6
2023-04-28T08:42:37.684Z,6.1
2023-04-28T08:48:25.915Z,6.5
2023-04-28T08:54:27.016Z,6.4
2023-04-28T09:00:13.220Z,5.6
2023-04-28T09:06:05.446Z,3.2
2023-04-28T09:12:01.265Z,6.2
2023-04-28T09:17:56.457Z,3.3
2023-04-28T09:23:56.934Z,4.9
2023-04-28T09:29:43.022Z,4.2
2023-04-28T09:35:39.080Z,4.7
2023-04-28T09:41:27.040Z,3.5
2023-04-28T09:47:24.133Z,3.2
2023-04-28T09:53:18.152Z,3.6
2023-04-28T09:59:03.466Z,3.5
2023-04-28T10:04:54.597Z,2.2
2023-04-28T10:10:50.196Z,2.6
2023-04-28T10:16:36.804Z,2.9
2023-04-28T10:22:31.201Z,2.5
2023-04-28T10:28:29.481Z,3.1
2023-04-28T10:34:25.720Z,3.7
2023-04-28T10:40:22.942Z,3.3
2023-04-28T10:46:18.099Z,3.3
2023-04-28T10:52:03.474Z,2.3
2023-04-28T10:57:57.920Z,2.1
2023-04-28T11:03:54.045Z,1.6
2023-04-28T11:09:58.191Z,2.4
2023-04-28T11:15:56.062Z,1
2023-04-28T11:21:44.719Z,3.3
2023-04-28T11:27:40.849Z,1.4
2023-04-28T11:33:26.898Z,2.2
2023-04-28T11:39:17.837Z,2
2023-04-28T11:45:05.928Z,2.5
2023-04-28T11:50:57.312Z,1.2
2023-04-28T11:56:52.379Z,1.6
2023-04-28T12:02:43.154Z,2.4
2023-04-28T12:08:36.543Z,2.1
2023-04-28T12:14:27.996Z,1.2
2023-04-28T12:20:24.239Z,1.4
2023-04-28T12:26:14.544Z,1.2
2023-04-28T12:32:04.787Z,1.5
2023-04-28T12:37:51.192Z,1.3
2023-04-28T12:43:47.717Z,1
2023-04-28T12:49:43.386Z,1.3
2023-04-28T12:55:29.864Z,0.8
2023-04-28T13:01:18.471Z,1.1
2023-04-28T13:07:08.283Z,1.1
2023-04-28T13:12:59.773Z,1.4
2023-04-28T13:18:45.671Z,2
2023-04-28T13:24:37.736Z,0.9
2023-04-28T13:30:23.866Z,1.4
2023-04-28T13:36:13.628Z,0.7
2023-04-28T13:42:00.254Z,0.9
2023-04-28T13:47:56.513Z,0.6
2023-04-28T13:53:49.275Z,0.8
2023-04-28T13:59:35.729Z,0.8
2023-04-28T14:05:26.793Z,1.3
2023-04-28T14:11:18.512Z,1.4
2023-04-28T14:17:04.985Z,2.8
2023-04-28T14:22:53.360Z,1.2
2023-04-28T14:28:48.667Z,0.7
2023-04-28T14:34:37.935Z,1.3
2023-04-28T14:40:27.984Z,1.6
2023-04-28T14:46:15.897Z,0.7
2023-04-28T14:52:03.939Z,1.6
2023-04-28T14:57:51.567Z,1.1
2023-04-28T15:03:43.969Z,1.1
2023-04-28T15:09:34.227Z,1
2023-04-28T15:15:23.439Z,0.6
2023-04-28T15:21:14.876Z,0.3
2023-04-28T15:27:06.599Z,0.5
2023-04-28T15:32:54.089Z,1.5
2023-04-28T15:38:43.873Z,1.2
2023-04-28T15:44:35.314Z,0.9
2023-04-28T15:50:30.725Z,1.5
2023-04-28T15:56:23.610Z,1.9
2023-04-28T16:02:09.845Z,1.9
2023-04-28T16:07:56.540Z,1.8
2023-04-28T16:13:46.579Z,0.7
2023-04-28T16:19:41.050Z,0.8
2023-04-28T16:25:34.438Z,1.4
2023-04-28T16:31:23.639Z,1.2
2023-04-28T16:37:13.586Z,1.2
2023-04-28T16:42:58.782Z,2.2
2023-04-28T16:48:55.575Z,1.4
2023-04-28T16:55:04.776Z,1
2023-04-28T17:01:11.096Z,2.8
2023-04-28T17:07:01.803Z,2.9
2023-04-28T17:12:52.683Z,1.4
2023-04-28T17:18:43.844Z,2.5
2023-04-28T17:24:32.104Z,2.5
2023-04-28T17:30:31.422Z,1.3
2023-04-28T17:36:31.428Z,1.6
2023-04-28T17:42:36.315Z,1.6
2023-04-28T17:48:35.078Z,1.5
2023-04-28T17:54:27.480Z,2
2023-04-28T18:00:16.871Z,1.4
2023-04-28T18:06:03.749Z,1.3
2023-04-28T18:12:01.365Z,2
2023-04-28T18:17:49.599Z,2
2023-04-28T18:23:49.059Z,1.8
2023-04-28T18:29:35.817Z,1.4
2023-04-28T18:35:24.106Z,2.1
2023-04-28T18:41:21.226Z,2.6
2023-04-28T18:47:11.774Z,2.1
2023-04-28T18:52:57.886Z,2.7
2023-04-28T18:58:43.526Z,3.2
2023-04-28T19:04:31.594Z,4.4
2023-04-28T19:10:20.202Z,3
2023-04-28T19:16:12.321Z,2
2023-04-28T19:22:04.612Z,3
2023-04-28T19:27:58.618Z,2.4
2023-04-28T19:33:47.153Z,2.9
2023-04-28T19:39:33.819Z,2.5
2023-04-28T19:45:27.077Z,2.3
2023-04-28T19:51:13.273Z,3.3
2023-04-28T19:57:01.685Z,3.3
2023-04-28T20:02:51.893Z,2.4
2023-04-28T20:08:53.197Z,2.9
2023-04-28T20:14:41.549Z,3.8
2023-04-28T20:20:32.796Z,4
2023-04-28T20:26:24.136Z,2.5
2023-04-28T20:32:14.300Z,2.4
2023-04-28T20:38:04.914Z,2.7
2023-04-28T20:43:56.068Z,3.9
2023-04-28T20:49:43.733Z,3.9
2023-04-28T20:55:36.292Z,3
2023-04-28T21:01:28.896Z,3.7
2023-04-28T21:07:14.294Z,4.5
2023-04-28T21:13:07.763Z,4.3
2023-04-28T21:18:59.119Z,6.2
2023-04-28T21:24:53.591Z,4.6
2023-04-28T21:30:48.708Z,4.5
2023-04-28T21:36:37.253Z,5.3
2023-04-28T21:42:26.043Z,6.5
2023-04-28T21:48:15.042Z,5.1
2023-04-28T21:54:00.349Z,5.6
2023-04-28T21:59:48.694Z,5.3
2023-04-28T22:05:34.102Z,5.6
2023-04-28T22:11:19.311Z,6.1
2023-04-28T22:17:05.463Z,6.4
2023-04-28T22:22:56.872Z,5.9
2023-04-28T22:28:43.360Z,5.8
2023-04-28T22:34:28.851Z,6.8
2023-04-28T22:40:19.752Z,7.9
2023-04-28T22:46:13.248Z,6.7
2023-04-28T22:52:08.715Z,5.9
2023-04-28T22:58:00.462Z,6.2
2023-04-28T23:03:52.079Z,6.2
2023-04-28T23:09:40.567Z,6.4
2023-04-28T23:15:26.515Z,7.3
2023-04-28T23:21:12.648Z,6.6
2023-04-28T23:26:58.788Z,7.5
2023-04-28T23:32:56.103Z,6
2023-04-28T23:38:41.456Z,7.2
2023-04-28T23:44:36.122Z,7.5
2023-04-28T23:50:22.617Z,7.9
2023-04-28T23:56:12.373Z,7.2
